チャーチル の空港の天気 - METARとTAF

チャーチル空港 ( CYYQ / YYQ ) - カナダ マニトバ州Churchill
飛行場実況気象(Metar)
観測時間05/27 19:00 CDT (05/28 00:00 UTC)
風向・風速北北東 7m/s 瞬間風速10m/s
視程10km以上
天気現象弱い氷雨
全天を覆う雲 雲底高度 150m
気温0℃
湿度93%
気圧1015.4hPa
METARCYYQ 280000Z 03014G19KT 12SM -FZRA OVC005 M00/M01 A2997 RMK SC8 SLP154
過去の天気等 Google飛行場航空写真 Wunderground天気予報

過去48時間のMETAR

飛行場予報(TAF)
発表時間: 5/27 18:41 CDT (5/27 23:41 UTC)
予報対象時間: 27日19時 CDT ~ 28日19時 CDT
風向・風速北東 8m/s 瞬間風速 13m/s
視程10km以上
全天を覆う雲 雲底高度 240m
27日19時 CDT ~ 27日23時 CDT に一時的に
視程4830m
天気現象弱い氷雨 もや
全天を覆う雲 雲底高度 90m
27日23時 CDT から
風向・風速北東 8m/s 瞬間風速 13m/s
視程10km以上
全天を覆う雲 雲底高度 240m
27日23時 CDT ~ 28日11時 CDT に一時的に
視程6440m
天気現象もや
全天を覆う雲 雲底高度 120m
27日23時 CDT から 確率 30% で
視程3220m
天気現象弱い氷霧雨 もや
28日11時 CDT から
風向・風速北北東 8m/s 瞬間風速 13m/s
視程10km以上
全天を覆う雲 雲底高度 370m
28日11時 CDT ~ 28日13時 CDT に一時的に
全天を覆う雲 雲底高度 240m
TAF CYYQ 272341Z 2800/2824 04015G25KT P6SM OVC008
TEMPO 2800/2804 3SM -FZRA BR OVC003
FM280400 04015G25KT P6SM OVC008
TEMPO 2804/2816 4SM BR OVC004
PROB30 2804/2812 2SM -FZDZ BR
FM281600 02015G25KT P6SM OVC012
TEMPO 2816/2818 OVC008 RMK NXT FCST BY 280600Z